Meloi — 3FOD — position and weather

sailwx.info

Track history (hours):
 
Tides and Currents Weather Stations Pressure Air Temp Water Temp Dewpoint Dewpoint Depression Visibility Wind Speed Wind Dir Waves Ship Positions

Meloi

Last reported at 2015-Aug-01 14:29 UTC. Time now 2015-Aug-03 23:23 UTC.
Position S 34°45' W 057°36'.

Length 180 m; draft 10.2 m.

Type: Cargo ship. MMSI: 351132000.

Date/timePositionNaut miles runAvg speedWind from/ knotsBaromVisibWave heightAir tempDewpointWater temp
2015-Aug-01 14:29S 34°45' W 057°36'1111.7
2015-Aug-01 13:33S 34°44' W 057°49'7 6.9
2015-Aug-01 12:34S 34°41' W 057°56'1110.8
2015-Aug-01 11:34S 34°38' W 058°09'10 9.7
2015-Aug-01 10:32S 34°33' W 058°19'  
2015-Jul-26 14:28S 34°14' W 058°05'1010.6
2015-Jul-26 13:34S 34°22' W 058°00'1111.0
2015-Jul-26 12:33S 34°33' W 057°56'1010.0
2015-Jul-26 11:34S 34°43' W 057°54'9 8.9
2015-Jul-26 10:33S 34°44' W 057°43'1211.7
2015-Jul-26 09:33S 34°47' W 057°30'  
Track history (hours):
 
Tides and Currents Weather Stations Pressure Air Temp Water Temp Dewpoint Dewpoint Depression Visibility Wind Speed Wind Dir Waves Ship Positions

Meloi

Last reported at 2015-Aug-01 14:29 UTC. Time now 2015-Aug-03 23:23 UTC.
Position S 34°45' W 057°36'.

Length 180 m; draft 10.2 m.

Type: Cargo ship. MMSI: 351132000.

Date/timePositionNaut miles runAvg speedWind from/ knotsBaromVisibWave heightAir tempDewpointWater temp
2015-Aug-01 14:29S 34°45' W 057°36'1111.7
2015-Aug-01 13:33S 34°44' W 057°49'7 6.9
2015-Aug-01 12:34S 34°41' W 057°56'1110.8
2015-Aug-01 11:34S 34°38' W 058°09'10 9.7
2015-Aug-01 10:32S 34°33' W 058°19'  
2015-Jul-26 14:28S 34°14' W 058°05'1010.6
2015-Jul-26 13:34S 34°22' W 058°00'1111.0
2015-Jul-26 12:33S 34°33' W 057°56'1010.0
2015-Jul-26 11:34S 34°43' W 057°54'9 8.9
2015-Jul-26 10:33S 34°44' W 057°43'1211.7
2015-Jul-26 09:33S 34°47' W 057°30'  

Dump ship's entire track history